createdAt,value
2023-05-03T00:01:37.008Z,6.87
2023-05-03T00:11:39.670Z,6.90
2023-05-03T00:21:43.785Z,7.01
2023-05-03T00:31:46.422Z,7.15
2023-05-03T00:41:50.446Z,7.26
2023-05-03T00:51:54.562Z,7.30
2023-05-03T01:01:58.695Z,7.27
2023-05-03T01:12:13.935Z,7.34
2023-05-03T01:22:22.888Z,7.26
2023-05-03T01:32:33.562Z,7.31
2023-05-03T01:42:38.288Z,7.39
2023-05-03T01:52:42.578Z,7.44
2023-05-03T02:02:45.212Z,7.48
2023-05-03T02:12:49.398Z,7.61
2023-05-03T02:22:52.090Z,7.70
2023-05-03T02:32:56.170Z,7.63
2023-05-03T02:42:58.878Z,7.65
2023-05-03T02:53:04.183Z,7.65
2023-05-03T03:03:06.938Z,7.71
2023-05-03T03:13:11.005Z,7.74
2023-05-03T03:23:13.663Z,7.84
2023-05-03T03:33:17.923Z,7.79
2023-05-03T03:43:20.617Z,7.76
2023-05-03T03:53:24.738Z,7.92
2023-05-03T04:03:27.469Z,7.96
2023-05-03T04:13:31.983Z,7.94
2023-05-03T04:23:34.686Z,8.04
2023-05-03T04:33:38.608Z,8.16
2023-05-03T04:43:41.326Z,8.24
2023-05-03T04:53:45.304Z,8.31
2023-05-03T05:03:48.065Z,8.49
2023-05-03T05:13:52.153Z,8.75
2023-05-03T05:23:55.046Z,8.85
2023-05-03T05:33:59.154Z,9.07
2023-05-03T05:44:01.900Z,9.39
2023-05-03T05:54:06.002Z,9.69
2023-05-03T06:04:09.382Z,9.84
2023-05-03T06:14:13.320Z,10.10
2023-05-03T06:24:20.913Z,10.37
2023-05-03T06:34:25.110Z,10.60
2023-05-03T06:44:27.808Z,10.97
2023-05-03T06:54:31.852Z,11.18
2023-05-03T07:04:34.959Z,11.01
2023-05-03T07:14:39.530Z,11.10
2023-05-03T07:24:42.311Z,11.44
2023-05-03T07:34:46.649Z,11.40
2023-05-03T07:44:49.525Z,11.40
2023-05-03T07:54:56.990Z,11.36
2023-05-03T08:05:00.005Z,11.71
2023-05-03T08:15:10.636Z,11.33
2023-05-03T08:25:13.642Z,11.79
2023-05-03T08:35:17.918Z,12.07
2023-05-03T08:45:20.817Z,12.33
2023-05-03T08:55:25.038Z,12.40
2023-05-03T09:05:35.580Z,12.80
2023-05-03T09:15:39.572Z,13.21
2023-05-03T09:25:47.146Z,13.08
2023-05-03T09:35:59.250Z,13.23
2023-05-03T09:46:10.345Z,13.45
2023-05-03T09:56:14.632Z,13.41
2023-05-03T10:06:27.983Z,13.67
2023-05-03T10:16:37.142Z,13.70
2023-05-03T10:26:46.631Z,14.24
2023-05-03T10:36:54.041Z,14.03
2023-05-03T10:46:57.238Z,14.26
2023-05-03T10:57:01.808Z,14.83
2023-05-03T11:07:04.775Z,15.39
2023-05-03T11:17:12.197Z,16.15
2023-05-03T11:27:16.184Z,19.53
2023-05-03T11:37:20.276Z,25.92
2023-05-03T11:47:23.255Z,23.40
2023-05-03T11:57:27.523Z,24.45
2023-05-03T12:07:30.480Z,21.83
2023-05-03T12:17:42.819Z,27.85
2023-05-03T12:27:54.647Z,27.27
2023-05-03T12:38:15.925Z,25.17
2023-05-03T12:48:19.643Z,22.26
2023-05-03T12:58:51.568Z,28.04
2023-05-03T13:08:50.161Z,29.51
2023-05-03T13:18:56.502Z,25.39
2023-05-03T13:28:59.563Z,25.86
2023-05-03T13:39:03.931Z,25.33
2023-05-03T13:49:07.353Z,24.71
2023-05-03T13:59:15.168Z,22.29
2023-05-03T14:09:19.848Z,20.36
2023-05-03T14:19:23.989Z,21.94
2023-05-03T14:29:28.883Z,21.88
2023-05-03T14:39:33.222Z,21.45
2023-05-03T14:49:40.846Z,21.43
2023-05-03T14:59:47.154Z,20.98
2023-05-03T15:32:19.012Z,19.82
2023-05-03T15:42:24.754Z,19.75
2023-05-03T15:52:28.217Z,19.22
2023-05-03T16:02:40.978Z,18.63
2023-05-03T16:12:44.210Z,18.27
2023-05-03T16:22:50.199Z,17.77
2023-05-03T16:32:57.463Z,17.30
2023-05-03T16:43:07.406Z,17.26
2023-05-03T16:53:19.863Z,17.07
2023-05-03T17:13:48.203Z,16.55
2023-05-03T17:23:55.476Z,16.07
2023-05-03T17:34:01.542Z,15.41
2023-05-03T17:44:10.660Z,14.67
2023-05-03T17:54:15.823Z,14.13
2023-05-03T18:04:26.098Z,14.04
2023-05-03T18:14:28.881Z,13.50
2023-05-03T18:24:39.772Z,12.88
2023-05-03T18:34:47.464Z,12.44
2023-05-03T18:45:08.189Z,12.13
2023-05-03T18:55:14.595Z,11.62
2023-05-03T19:05:44.350Z,11.34
2023-05-03T19:16:17.473Z,11.11
2023-05-03T19:26:26.082Z,10.70
2023-05-03T19:36:46.924Z,10.38
2023-05-03T20:08:31.850Z,9.46
2023-05-03T20:18:49.894Z,9.30
2023-05-03T20:28:58.233Z,9.17
2023-05-03T20:39:18.648Z,8.93
2023-05-03T20:49:57.358Z,8.74
2023-05-03T21:00:13.448Z,8.58
2023-05-03T21:10:16.380Z,8.45
2023-05-03T21:20:27.825Z,8.33
2023-05-03T21:31:15.785Z,8.20
2023-05-03T21:42:14.913Z,8.09
2023-05-03T21:52:17.565Z,8.00
2023-05-03T22:02:21.605Z,7.78
2023-05-03T22:12:25.185Z,7.65
2023-05-03T22:22:29.291Z,7.72
2023-05-03T22:32:32.353Z,7.59
2023-05-03T22:42:36.774Z,7.52
2023-05-03T22:52:39.435Z,7.44
2023-05-03T23:02:44.286Z,7.33
2023-05-03T23:12:47.114Z,7.30
2023-05-03T23:22:51.174Z,7.25
2023-05-03T23:32:53.918Z,7.09
2023-05-03T23:42:58.329Z,6.98
2023-05-03T23:53:01.552Z,6.97
